createdAt,value
2022-08-16T00:01:26.490Z,12.68
2022-08-16T00:03:59.910Z,12.82
2022-08-16T00:06:29.415Z,11.48
2022-08-16T00:08:57.543Z,15.30
2022-08-16T00:11:26.546Z,15.30
2022-08-16T00:13:55.436Z,14.25
2022-08-16T00:17:01.025Z,16.27
2022-08-16T00:19:15.955Z,14.73
2022-08-16T00:21:46.615Z,13.15
2022-08-16T00:24:31.439Z,12.88
2022-08-16T00:27:01.346Z,11.90
2022-08-16T00:29:30.255Z,13.82
2022-08-16T00:32:05.493Z,12.18
2022-08-16T00:34:43.343Z,14.18
2022-08-16T00:37:24.392Z,13.48
2022-08-16T00:39:57.514Z,14.73
2022-08-16T00:42:30.423Z,14.10
2022-08-16T00:45:08.160Z,13.35
2022-08-16T00:47:42.688Z,14.52
2022-08-16T00:50:21.767Z,16.17
2022-08-16T00:53:05.123Z,14.77
2022-08-16T00:55:37.797Z,14.35
2022-08-16T00:58:12.982Z,14.32
2022-08-16T01:00:45.613Z,13.00
2022-08-16T01:03:30.018Z,14.95
2022-08-16T01:06:00.875Z,14.30
2022-08-16T01:08:52.960Z,17.23
2022-08-16T01:11:23.695Z,17.13
2022-08-16T01:13:56.957Z,10.95
2022-08-16T01:16:28.432Z,13.73
2022-08-16T01:19:02.587Z,14.00
2022-08-16T01:21:41.011Z,13.07
2022-08-16T01:24:44.614Z,11.32
2022-08-16T01:27:14.996Z,12.95
2022-08-16T01:29:57.803Z,15.43
2022-08-16T01:32:31.504Z,13.75
2022-08-16T01:35:03.070Z,13.77
2022-08-16T01:37:38.989Z,13.55
2022-08-16T01:40:13.347Z,16.10
2022-08-16T01:42:44.537Z,14.57
2022-08-16T01:45:19.663Z,17.13
2022-08-16T01:47:51.048Z,14.80
2022-08-16T01:50:42.245Z,18.08
2022-08-16T01:53:11.956Z,15.85
2022-08-16T01:55:42.895Z,14.18
2022-08-16T01:58:23.957Z,16.38
2022-08-16T02:00:52.059Z,13.38
2022-08-16T02:03:24.459Z,13.23
2022-08-16T02:05:55.062Z,14.90
2022-08-16T02:08:33.561Z,15.23
2022-08-16T02:11:08.693Z,14.35
2022-08-16T02:13:36.817Z,18.10
2022-08-16T02:16:18.690Z,11.45
2022-08-16T02:18:47.298Z,11.13
2022-08-16T02:21:16.561Z,13.35
2022-08-16T02:23:45.024Z,13.15
2022-08-16T02:26:17.025Z,13.30
2022-08-16T02:28:47.324Z,13.93
2022-08-16T02:31:16.777Z,13.35
2022-08-16T02:33:49.968Z,15.05
2022-08-16T02:36:47.401Z,14.50
2022-08-16T02:39:09.583Z,17.33
2022-08-16T02:41:41.269Z,13.38
2022-08-16T02:44:11.329Z,12.43
2022-08-16T02:46:49.806Z,13.15
2022-08-16T02:49:21.898Z,13.60
2022-08-16T02:52:00.329Z,13.63
2022-08-16T02:54:29.149Z,13.82
2022-08-16T02:56:58.653Z,14.40
2022-08-16T02:59:27.669Z,14.52
2022-08-16T03:02:08.944Z,18.67
2022-08-16T03:04:50.859Z,14.40
2022-08-16T03:07:27.475Z,14.00
2022-08-16T03:10:00.543Z,15.77
2022-08-16T03:12:37.778Z,14.50
2022-08-16T03:15:07.190Z,13.50
2022-08-16T03:17:36.859Z,13.40
2022-08-16T03:20:21.653Z,12.52
2022-08-16T03:23:01.877Z,13.57
2022-08-16T03:25:44.691Z,13.95
2022-08-16T03:28:17.826Z,12.75
2022-08-16T03:30:46.246Z,15.27
2022-08-16T03:33:15.874Z,13.93
2022-08-16T03:35:44.016Z,11.80
2022-08-16T03:38:34.445Z,13.77
2022-08-16T03:41:05.568Z,13.35
2022-08-16T03:43:54.683Z,14.65
2022-08-16T03:46:45.084Z,10.93
2022-08-16T03:49:12.261Z,15.07
2022-08-16T03:51:41.577Z,12.10
2022-08-16T03:54:12.246Z,14.15
2022-08-16T03:56:58.107Z,13.93
2022-08-16T03:59:29.672Z,12.20
2022-08-16T04:01:58.431Z,14.85
2022-08-16T04:04:33.414Z,14.95
2022-08-16T04:07:04.221Z,12.88
2022-08-16T04:09:35.488Z,12.40
2022-08-16T04:12:04.251Z,19.13
2022-08-16T04:14:46.732Z,14.15
2022-08-16T04:17:16.402Z,13.52
2022-08-16T04:19:46.683Z,17.02
2022-08-16T04:22:17.362Z,17.02
2022-08-16T04:24:54.861Z,14.60
2022-08-16T04:27:24.629Z,17.58
2022-08-16T04:30:03.409Z,14.52
2022-08-16T04:32:31.910Z,15.90
2022-08-16T04:35:02.259Z,15.77
2022-08-16T04:37:32.825Z,17.35
2022-08-16T04:40:12.371Z,16.48
2022-08-16T04:42:50.684Z,19.90
2022-08-16T04:45:35.643Z,15.63
2022-08-16T04:48:04.923Z,17.65
2022-08-16T04:50:33.053Z,17.05
2022-08-16T04:53:01.438Z,16.02
2022-08-16T04:55:37.827Z,18.38
2022-08-16T04:58:43.670Z,14.20
2022-08-16T05:00:56.942Z,18.17
2022-08-16T05:03:26.062Z,17.35
2022-08-16T05:05:59.037Z,17.73
2022-08-16T05:08:32.845Z,17.80
2022-08-16T05:11:05.726Z,15.82
2022-08-16T05:13:41.679Z,16.25
2022-08-16T05:16:19.958Z,15.35
2022-08-16T05:18:49.006Z,14.30
2022-08-16T05:21:17.122Z,16.88
2022-08-16T05:23:55.627Z,16.77
2022-08-16T05:26:27.849Z,14.25
2022-08-16T05:28:56.991Z,16.98
2022-08-16T05:31:29.799Z,14.60
2022-08-16T05:34:00.121Z,16.10
2022-08-16T05:36:34.279Z,15.50
2022-08-16T05:39:06.697Z,15.57
2022-08-16T05:41:44.808Z,13.07
2022-08-16T05:44:23.010Z,18.90
2022-08-16T05:46:56.123Z,15.23
2022-08-16T05:49:24.577Z,15.98
2022-08-16T05:51:55.681Z,22.52
2022-08-16T05:54:25.751Z,15.85
2022-08-16T05:56:54.580Z,16.70
2022-08-16T05:59:24.184Z,21.45
2022-08-16T06:01:52.513Z,20.00
2022-08-16T06:04:34.966Z,16.17
2022-08-16T06:07:08.887Z,18.90
2022-08-16T06:09:43.838Z,15.68
2022-08-16T06:12:27.005Z,17.85
2022-08-16T06:14:59.690Z,18.13
2022-08-16T06:17:41.189Z,17.73
2022-08-16T06:20:18.378Z,17.05
2022-08-16T06:22:57.401Z,18.33
2022-08-16T06:25:36.108Z,18.15
2022-08-16T06:28:08.475Z,17.67
2022-08-16T06:30:43.972Z,16.10
2022-08-16T06:33:19.607Z,18.95
2022-08-16T06:35:49.603Z,14.07
2022-08-16T06:38:32.338Z,16.42
2022-08-16T06:41:03.837Z,15.02
2022-08-16T06:43:32.359Z,19.10
2022-08-16T06:46:00.765Z,17.05
2022-08-16T06:48:33.928Z,14.32
2022-08-16T06:51:04.700Z,16.42
2022-08-16T06:53:35.718Z,18.52
2022-08-16T06:56:13.987Z,16.05
2022-08-16T06:58:46.806Z,15.07
2022-08-16T07:01:15.932Z,15.93
2022-08-16T07:03:55.581Z,17.30
2022-08-16T07:06:27.365Z,16.90
2022-08-16T07:08:55.996Z,16.65
2022-08-16T07:11:47.565Z,13.80
2022-08-16T07:14:26.265Z,16.30
2022-08-16T07:16:57.858Z,17.45
2022-08-16T07:20:01.476Z,14.68
2022-08-16T07:22:37.811Z,15.60
2022-08-16T07:25:06.701Z,18.85
2022-08-16T07:27:37.363Z,16.60
2022-08-16T07:30:39.173Z,14.98
2022-08-16T07:32:56.746Z,15.73
2022-08-16T07:35:25.646Z,16.20
2022-08-16T07:37:55.364Z,15.05
2022-08-16T07:40:49.291Z,17.10
2022-08-16T07:43:11.959Z,15.10
2022-08-16T07:45:42.801Z,16.70
2022-08-16T07:48:12.665Z,13.63
2022-08-16T07:50:56.867Z,18.77
2022-08-16T07:53:29.448Z,14.15
2022-08-16T07:55:59.309Z,15.10
2022-08-16T07:58:34.476Z,14.25
2022-08-16T08:01:10.441Z,13.38
2022-08-16T08:03:47.613Z,13.93
2022-08-16T08:06:18.203Z,12.95
2022-08-16T08:08:51.700Z,13.63
2022-08-16T08:11:23.606Z,12.15
2022-08-16T08:13:54.013Z,12.20
2022-08-16T08:16:30.473Z,12.80
2022-08-16T08:19:00.946Z,13.48
2022-08-16T08:22:01.254Z,12.38
2022-08-16T08:24:22.864Z,11.43
2022-08-16T08:27:02.199Z,11.70
2022-08-16T08:29:36.930Z,11.80
2022-08-16T08:33:01.823Z,14.68
2022-08-16T08:34:55.929Z,17.00
2022-08-16T08:37:51.151Z,11.02
2022-08-16T08:40:24.279Z,12.43
2022-08-16T08:42:57.641Z,12.50
2022-08-16T08:45:48.345Z,11.55
2022-08-16T08:48:33.380Z,13.73
2022-08-16T08:51:03.873Z,12.15
2022-08-16T08:53:32.888Z,14.10
2022-08-16T08:56:23.543Z,9.73
2022-08-16T08:58:54.067Z,11.63
2022-08-16T09:01:31.994Z,10.50
2022-08-16T09:04:06.240Z,9.40
2022-08-16T09:06:35.278Z,10.50
2022-08-16T09:09:04.655Z,10.00
2022-08-16T09:11:41.045Z,9.75
2022-08-16T09:14:23.978Z,9.85
2022-08-16T09:17:03.356Z,10.15
2022-08-16T09:19:34.272Z,9.50
2022-08-16T09:22:03.317Z,8.70
2022-08-16T09:24:52.008Z,10.30
2022-08-16T09:27:23.522Z,9.48
2022-08-16T09:30:00.245Z,8.52
2022-08-16T09:32:30.910Z,9.38
2022-08-16T09:34:59.892Z,9.20
2022-08-16T09:37:30.045Z,7.40
2022-08-16T09:40:17.967Z,8.32
2022-08-16T09:42:59.423Z,7.28
2022-08-16T09:45:29.191Z,8.40
2022-08-16T09:47:58.741Z,7.07
2022-08-16T09:50:37.124Z,6.68
2022-08-16T09:53:15.182Z,6.80
2022-08-16T09:55:49.501Z,6.05
2022-08-16T09:58:40.857Z,5.88
2022-08-16T10:01:11.043Z,6.25
2022-08-16T10:04:02.821Z,5.38
2022-08-16T10:06:33.366Z,4.55
2022-08-16T10:09:05.982Z,6.03
2022-08-16T10:11:52.750Z,5.45
2022-08-16T10:14:24.921Z,5.07
2022-08-16T10:17:03.555Z,5.18
2022-08-16T10:19:33.389Z,6.28
2022-08-16T10:22:04.955Z,5.22
2022-08-16T10:24:33.921Z,6.20
2022-08-16T10:27:25.798Z,5.97
2022-08-16T10:30:00.143Z,8.07
2022-08-16T10:32:35.093Z,6.13
2022-08-16T10:35:03.825Z,5.97
2022-08-16T10:37:32.592Z,6.75
2022-08-16T10:40:28.463Z,6.38
2022-08-16T10:42:55.222Z,5.93
2022-08-16T10:45:25.464Z,5.93
2022-08-16T10:48:02.979Z,6.00
2022-08-16T10:50:33.388Z,5.47
2022-08-16T10:53:07.470Z,5.82
2022-08-16T10:55:40.887Z,6.22
2022-08-16T10:58:17.090Z,4.95
2022-08-16T11:00:48.037Z,7.35
2022-08-16T11:06:07.444Z,7.90
2022-08-16T11:08:43.390Z,5.75
2022-08-16T11:11:19.378Z,6.63
2022-08-16T11:13:58.653Z,5.35
2022-08-16T11:19:17.745Z,5.63
2022-08-16T11:24:43.164Z,4.60
2022-08-16T11:27:20.164Z,5.55
2022-08-16T11:29:49.551Z,5.05
2022-08-16T11:32:20.373Z,5.43
2022-08-16T11:35:10.544Z,4.43
2022-08-16T11:40:38.800Z,5.97
2022-08-16T11:43:10.174Z,4.65
2022-08-16T11:45:38.790Z,5.15
2022-08-16T11:48:12.267Z,4.28
2022-08-16T11:50:40.510Z,4.90
2022-08-16T11:53:08.993Z,4.68
2022-08-16T11:55:38.500Z,6.15
2022-08-16T11:58:08.345Z,4.93
2022-08-16T12:00:51.219Z,5.05
2022-08-16T12:03:35.212Z,5.05
2022-08-16T12:06:10.691Z,5.10
2022-08-16T12:08:41.330Z,5.30
2022-08-16T12:11:11.603Z,5.00
2022-08-16T12:13:40.557Z,4.55
2022-08-16T12:16:09.396Z,4.30
2022-08-16T12:18:40.273Z,4.13
2022-08-16T12:21:09.731Z,3.60
2022-08-16T12:23:38.358Z,3.83
2022-08-16T12:26:10.287Z,4.30
2022-08-16T12:28:56.210Z,5.25
2022-08-16T12:31:25.945Z,3.83
2022-08-16T12:33:57.476Z,5.40
2022-08-16T12:36:30.144Z,3.88
2022-08-16T12:38:59.477Z,4.43
2022-08-16T12:41:27.525Z,3.65
2022-08-16T12:43:56.830Z,4.13
2022-08-16T12:46:27.530Z,3.58
2022-08-16T12:48:59.787Z,3.58
2022-08-16T12:51:33.025Z,3.92
2022-08-16T12:54:20.372Z,4.28
2022-08-16T12:56:50.365Z,4.20
2022-08-16T12:59:21.883Z,4.18
2022-08-16T13:01:55.444Z,4.07
2022-08-16T13:04:28.055Z,4.32
2022-08-16T13:09:32.927Z,3.85
2022-08-16T13:12:19.305Z,4.18
2022-08-16T13:14:49.926Z,3.78
2022-08-16T13:17:21.821Z,4.63
2022-08-16T13:20:11.015Z,3.92
2022-08-16T13:22:42.946Z,4.22
2022-08-16T13:25:19.422Z,4.40
2022-08-16T13:28:14.889Z,4.47
2022-08-16T13:30:41.168Z,4.38
2022-08-16T13:33:12.482Z,3.88
2022-08-16T13:35:45.258Z,3.85
2022-08-16T13:38:24.966Z,4.53
2022-08-16T13:40:55.869Z,3.78
2022-08-16T13:43:25.087Z,3.92
2022-08-16T13:45:55.289Z,5.38
2022-08-16T13:48:25.147Z,4.15
2022-08-16T13:50:56.322Z,3.75
2022-08-16T13:53:25.423Z,4.72
2022-08-16T13:55:59.135Z,4.10
2022-08-16T13:58:36.662Z,4.45
2022-08-16T14:01:09.884Z,4.32
2022-08-16T14:03:39.672Z,7.32
2022-08-16T14:06:10.828Z,3.67
2022-08-16T14:08:41.991Z,4.75
2022-08-16T14:11:12.382Z,4.05
2022-08-16T14:13:42.178Z,4.65
2022-08-16T14:16:12.727Z,3.97
2022-08-16T14:18:52.696Z,3.53
2022-08-16T14:21:23.716Z,3.90
2022-08-16T14:23:52.486Z,4.07
2022-08-16T14:26:21.355Z,3.85
2022-08-16T14:28:51.060Z,3.65
2022-08-16T14:31:20.017Z,3.58
2022-08-16T14:33:48.371Z,3.45
2022-08-16T14:36:18.878Z,3.33
2022-08-16T14:38:59.030Z,3.83
2022-08-16T14:41:27.628Z,3.92
2022-08-16T14:43:56.768Z,4.18
2022-08-16T14:46:25.314Z,3.72
2022-08-16T14:48:53.955Z,4.00
2022-08-16T14:51:23.382Z,3.65
2022-08-16T14:53:56.890Z,4.05
2022-08-16T14:56:38.429Z,4.05
2022-08-16T14:59:11.018Z,3.80
2022-08-16T15:01:58.670Z,4.20
2022-08-16T15:04:32.444Z,3.92
2022-08-16T15:07:11.327Z,4.40
2022-08-16T15:09:44.225Z,3.95
2022-08-16T15:12:31.038Z,3.50
2022-08-16T15:15:12.489Z,3.45
2022-08-16T15:17:42.314Z,4.50
2022-08-16T15:20:26.234Z,4.35
2022-08-16T15:22:54.861Z,3.70
2022-08-16T15:25:29.647Z,3.92
2022-08-16T15:28:02.281Z,3.70
2022-08-16T15:30:56.546Z,3.60
2022-08-16T15:33:23.251Z,4.13
2022-08-16T15:35:57.954Z,4.05
2022-08-16T15:38:57.255Z,3.30
2022-08-16T15:41:35.944Z,2.95
2022-08-16T15:44:10.687Z,5.00
2022-08-16T15:46:54.768Z,3.25
2022-08-16T15:49:25.150Z,3.92
2022-08-16T15:51:53.888Z,3.45
2022-08-16T15:54:30.888Z,6.03
2022-08-16T15:57:11.998Z,3.30
2022-08-16T15:59:49.339Z,3.25
2022-08-16T16:02:29.797Z,3.55
2022-08-16T16:05:01.826Z,2.55
2022-08-16T16:07:31.097Z,3.55
2022-08-16T16:10:00.058Z,3.42
2022-08-16T16:15:19.955Z,3.42
2022-08-16T16:17:52.307Z,3.28
2022-08-16T16:20:21.327Z,3.83
2022-08-16T16:22:49.923Z,5.25
2022-08-16T16:25:18.997Z,2.92
2022-08-16T16:27:55.545Z,4.18
2022-08-16T16:30:44.349Z,3.25
2022-08-16T16:33:20.929Z,5.35
2022-08-16T16:35:55.190Z,3.50
2022-08-16T16:38:30.839Z,3.75
2022-08-16T16:41:00.511Z,3.45
2022-08-16T16:43:31.949Z,3.85
2022-08-16T16:46:02.910Z,3.50
2022-08-16T16:48:35.421Z,3.35
2022-08-16T16:51:09.377Z,3.50
2022-08-16T16:53:41.367Z,4.90
2022-08-16T16:56:20.289Z,2.97
2022-08-16T16:59:01.171Z,3.63
2022-08-16T17:01:57.065Z,4.10
2022-08-16T17:04:31.724Z,3.35
2022-08-16T17:07:01.600Z,3.88
2022-08-16T17:09:30.326Z,4.05
2022-08-16T17:12:05.081Z,3.50
2022-08-16T17:14:34.672Z,3.20
2022-08-16T17:17:08.506Z,4.45
2022-08-16T17:19:41.061Z,2.83
2022-08-16T17:22:14.744Z,3.35
2022-08-16T17:24:50.596Z,5.72
2022-08-16T17:27:33.930Z,3.65
2022-08-16T17:30:15.119Z,4.20
2022-08-16T17:32:54.463Z,5.22
2022-08-16T17:35:34.067Z,3.42
2022-08-16T17:38:04.734Z,3.95
2022-08-16T17:40:47.843Z,4.10
2022-08-16T17:43:28.363Z,5.07
2022-08-16T17:45:57.392Z,3.95
2022-08-16T17:51:05.855Z,3.95
2022-08-16T17:53:35.553Z,3.50
2022-08-16T17:56:06.610Z,4.18
2022-08-16T17:58:34.597Z,6.40
2022-08-16T18:01:11.238Z,4.97
2022-08-16T18:04:07.557Z,4.15
2022-08-16T18:06:31.717Z,4.63
2022-08-16T18:09:03.547Z,6.45
2022-08-16T18:11:34.058Z,5.57
2022-08-16T18:14:02.785Z,7.43
2022-08-16T18:16:30.898Z,6.13
2022-08-16T18:18:59.012Z,8.20
2022-08-16T18:21:45.584Z,4.43
2022-08-16T18:24:16.185Z,6.50
2022-08-16T18:26:44.389Z,5.28
2022-08-16T18:29:13.883Z,4.60
2022-08-16T18:31:42.024Z,4.90
2022-08-16T18:34:10.259Z,4.25
2022-08-16T18:36:38.596Z,5.35
2022-08-16T18:39:06.937Z,4.40
2022-08-16T18:41:37.331Z,4.85
2022-08-16T18:44:25.047Z,5.20
2022-08-16T18:46:55.026Z,7.15
2022-08-16T18:49:23.096Z,5.32
2022-08-16T18:51:51.180Z,4.30
2022-08-16T18:54:19.727Z,7.70
2022-08-16T18:56:55.984Z,9.95
2022-08-16T18:59:26.510Z,6.65
2022-08-16T19:02:00.534Z,5.53
2022-08-16T19:04:55.673Z,4.90
2022-08-16T19:07:21.186Z,7.65
2022-08-16T19:09:49.023Z,4.57
2022-08-16T19:12:38.295Z,5.63
2022-08-16T19:15:08.478Z,5.55
2022-08-16T19:17:40.074Z,7.55
2022-08-16T19:20:10.972Z,8.13
2022-08-16T19:25:47.198Z,4.75
2022-08-16T19:28:33.399Z,5.05
2022-08-16T19:31:12.130Z,5.82
2022-08-16T19:33:40.643Z,5.00
2022-08-16T19:36:30.463Z,6.93
2022-08-16T19:39:32.657Z,5.50
2022-08-16T19:42:11.772Z,4.55
2022-08-16T19:44:42.057Z,6.38
2022-08-16T19:47:10.839Z,4.95
2022-08-16T19:49:41.072Z,4.78
2022-08-16T19:52:15.149Z,5.25
2022-08-16T19:54:43.870Z,6.68
2022-08-16T19:57:12.885Z,5.28
2022-08-16T19:59:42.536Z,6.13
2022-08-16T20:02:35.594Z,4.70
2022-08-16T20:05:06.462Z,5.93
2022-08-16T20:07:34.827Z,4.93
2022-08-16T20:10:03.114Z,5.70
2022-08-16T20:12:31.317Z,8.27
2022-08-16T20:15:00.675Z,5.93
2022-08-16T20:17:28.811Z,5.15
2022-08-16T20:19:56.754Z,6.68
2022-08-16T20:22:51.712Z,5.47
2022-08-16T20:25:17.942Z,5.82
2022-08-16T20:27:47.301Z,5.13
2022-08-16T20:30:18.181Z,5.38
2022-08-16T20:32:47.350Z,6.07
2022-08-16T20:35:17.939Z,6.38
2022-08-16T20:37:48.226Z,7.10
2022-08-16T20:40:28.290Z,6.30
2022-08-16T20:43:06.581Z,5.43
2022-08-16T20:45:36.121Z,6.03
2022-08-16T20:48:19.232Z,6.43
2022-08-16T20:50:47.347Z,6.78
2022-08-16T20:53:15.338Z,7.13
2022-08-16T20:55:44.761Z,6.40
2022-08-16T20:58:12.689Z,5.97
2022-08-16T21:00:42.537Z,6.47
2022-08-16T21:03:12.245Z,6.93
2022-08-16T21:05:40.315Z,5.90
2022-08-16T21:08:50.463Z,6.32
2022-08-16T21:10:57.860Z,5.93
2022-08-16T21:13:26.875Z,7.13
2022-08-16T21:15:56.053Z,7.45
2022-08-16T21:18:24.164Z,7.32
2022-08-16T21:20:52.687Z,6.30
2022-08-16T21:23:21.174Z,5.30
2022-08-16T21:25:59.225Z,10.88
2022-08-16T21:28:40.644Z,5.13
2022-08-16T21:31:13.143Z,6.57
2022-08-16T21:33:42.697Z,6.18
2022-08-16T21:36:11.810Z,6.43
2022-08-16T21:38:40.531Z,5.75
2022-08-16T21:41:12.933Z,6.47
2022-08-16T21:43:41.503Z,6.30
2022-08-16T21:46:10.365Z,6.72
2022-08-16T21:48:40.702Z,6.85
2022-08-16T21:51:12.662Z,6.97
2022-08-16T21:53:41.618Z,6.65
2022-08-16T21:56:16.473Z,8.18
2022-08-16T21:58:45.578Z,7.90
2022-08-16T22:01:14.147Z,7.10
2022-08-16T22:03:45.484Z,6.70
2022-08-16T22:06:14.740Z,6.93
2022-08-16T22:08:50.080Z,6.60
2022-08-16T22:11:20.593Z,6.30
2022-08-16T22:13:51.275Z,9.00
2022-08-16T22:16:27.653Z,7.35
2022-08-16T22:18:57.072Z,6.45
2022-08-16T22:21:25.534Z,6.72
2022-08-16T22:23:56.852Z,7.32
2022-08-16T22:26:31.015Z,6.82
2022-08-16T22:29:00.750Z,6.00
2022-08-16T22:31:29.433Z,7.13
2022-08-16T22:33:58.998Z,6.30
2022-08-16T22:36:29.053Z,6.68
2022-08-16T22:38:58.719Z,6.97
2022-08-16T22:41:28.173Z,6.05
2022-08-16T22:43:56.804Z,6.25
2022-08-16T22:46:24.942Z,7.53
2022-08-16T22:48:53.122Z,8.10
2022-08-16T22:51:24.716Z,6.65
2022-08-16T22:53:54.032Z,6.97
2022-08-16T22:56:23.237Z,6.07
2022-08-16T22:58:51.890Z,7.93
2022-08-16T23:01:22.610Z,8.02
2022-08-16T23:03:51.368Z,9.65
2022-08-16T23:06:19.673Z,7.78
2022-08-16T23:08:49.086Z,7.07
2022-08-16T23:11:21.202Z,7.45
2022-08-16T23:13:53.021Z,7.05
2022-08-16T23:16:28.756Z,7.78
2022-08-16T23:19:02.041Z,7.00
2022-08-16T23:21:30.158Z,6.63
2022-08-16T23:24:00.072Z,7.43
2022-08-16T23:26:36.510Z,6.43
2022-08-16T23:29:24.855Z,6.97
2022-08-16T23:31:59.933Z,6.63
2022-08-16T23:34:29.425Z,6.40
2022-08-16T23:36:57.889Z,6.88
2022-08-16T23:39:27.629Z,6.95
2022-08-16T23:41:55.793Z,7.05
2022-08-16T23:44:42.347Z,6.57
2022-08-16T23:47:12.620Z,10.10
2022-08-16T23:49:56.135Z,9.52
2022-08-16T23:52:53.709Z,7.65
2022-08-16T23:55:17.737Z,7.03
2022-08-16T23:57:46.344Z,8.65
